Time;durP1;ratioP1;P1;durP2;ratioP2;P2;SDS_P1;SDS_P2;PMS_P1;PMS_P2;Temp;Humidity;BMP_temperature;BMP_pressure;BME280_temperature;BME280_humidity;BME280_pressure;Samples;Min_cycle;Max_cycle;Signal;HPM_P1;HPM_P2
2023/08/28 00:00:49;;;;;;;0.57;0.47;;;;;;;19.68;82.18;100592.59;5007237;28;20714;-57
2023/08/28 00:03:19;;;;;;;1.27;0.57;;;;;;;19.72;84.49;100588.88;5002445;28;20740;-57
2023/08/28 00:05:50;;;;;;;1.27;0.50;;;;;;;19.88;86.75;100598.72;5027314;28;20868;-56
2023/08/28 00:08:20;;;;;;;1.47;0.60;;;;;;;19.74;80.72;100597.59;5017578;28;20271;-57
2023/08/28 00:10:53;;;;;;;1.97;0.50;;;;;;;19.64;83.63;100601.59;5027313;28;20654;-55
2023/08/28 00:13:25;;;;;;;1.07;0.50;;;;;;;19.30;84.97;100550.25;5016606;28;20287;-56
2023/08/28 00:15:56;;;;;;;1.37;0.70;;;;;;;19.25;84.91;100562.84;5023366;28;21113;-56
2023/08/28 00:18:27;;;;;;;1.83;0.50;;;;;;;19.47;87.33;100599.78;5026349;28;20762;-55
2023/08/28 00:20:57;;;;;;;1.33;0.67;;;;;;;19.25;85.59;100576.09;5016588;28;20288;-56
2023/08/28 00:23:28;;;;;;;5.30;0.70;;;;;;;19.39;86.44;100586.91;5018633;28;20276;-57
2023/08/28 00:25:58;;;;;;;1.97;0.90;;;;;;;19.54;88.08;100584.41;4999023;28;20354;-56
2023/08/28 00:28:31;;;;;;;3.33;0.80;;;;;;;19.47;86.98;100583.88;5006642;28;20283;-57
2023/08/28 00:31:01;;;;;;;2.00;0.80;;;;;;;19.29;87.08;100584.75;4996445;28;20828;-57
2023/08/28 00:33:33;;;;;;;2.67;0.50;;;;;;;19.05;89.48;100592.06;5006725;28;20276;-58
2023/08/28 00:36:03;;;;;;;1.70;0.57;;;;;;;18.71;85.94;100593.56;4996778;28;20304;-57
2023/08/28 00:38:34;;;;;;;2.90;0.40;;;;;;;18.41;89.57;100604.56;5006706;28;20664;-56
2023/08/28 00:41:04;;;;;;;4.30;0.70;;;;;;;18.42;92.33;100598.38;4996286;28;20343;-56
2023/08/28 00:43:37;;;;;;;2.53;0.80;;;;;;;18.43;90.22;100600.06;5006504;28;20370;-56
2023/08/28 00:46:08;;;;;;;3.17;0.60;;;;;;;18.37;89.49;100595.06;4995836;28;20296;-57
2023/08/28 00:48:38;;;;;;;3.27;0.60;;;;;;;18.30;87.16;100604.19;5008471;28;20280;-58
2023/08/28 00:51:09;;;;;;;3.67;0.63;;;;;;;18.53;87.66;100590.78;5015835;28;20687;-59
2023/08/28 00:53:40;;;;;;;5.00;0.70;;;;;;;18.90;87.64;100594.47;5025428;28;20792;-59
2023/08/28 00:56:11;;;;;;;4.70;0.70;;;;;;;19.19;86.28;100618.75;5015678;28;20728;-57
2023/08/28 00:58:43;;;;;;;4.03;0.77;;;;;;;19.27;84.87;100608.69;5025892;28;20371;-57
2023/08/28 01:01:14;;;;;;;7.53;2.20;;;;;;;19.31;84.49;100615.53;5015198;28;20942;-57
2023/08/28 01:03:44;;;;;;;11.70;2.13;;;;;;;19.23;84.68;100612.38;5025384;28;20305;-59
2023/08/28 01:06:25;;;;;;;4.17;1.00;;;;;;;19.06;84.54;100612.31;5015604;28;20375;-56
2023/08/28 01:09:04;;;;;;;2.00;0.70;;;;;;;18.61;82.65;100571.06;5026002;28;20280;-57
2023/08/28 01:11:44;;;;;;;31.77;6.83;;;;;;;18.71;85.39;100598.84;5015377;28;20286;-57
2023/08/28 01:14:23;;;;;;;7.43;1.83;;;;;;;18.84;84.39;100615.91;5015629;28;20283;-58
2023/08/28 01:16:57;;;;;;;2.57;1.00;;;;;;;19.03;84.93;100618.59;5025849;28;20276;-57
2023/08/28 01:19:33;;;;;;;17.60;4.13;;;;;;;19.14;84.58;100623.41;5010384;28;20661;-57
2023/08/28 01:22:12;;;;;;;6.20;1.17;;;;;;;19.01;80.83;100559.56;4995702;28;20373;-55
2023/08/28 01:24:47;;;;;;;16.70;3.25;;;;;;;19.18;82.67;100598.50;5005773;28;20427;-56
2023/08/28 01:27:20;;;;;;;6.63;1.40;;;;;;;19.29;84.08;100614.72;4995938;28;20168;-57
2023/08/28 01:30:09;;;;;;;2.20;0.60;;;;;;;19.24;84.33;100619.38;5005133;28;20387;-58
2023/08/28 01:32:41;;;;;;;1.70;0.80;;;;;;;19.08;83.40;100597.22;4991533;28;20440;-56
2023/08/28 01:35:14;;;;;;;2.73;0.87;;;;;;;19.04;82.90;100606.22;4995955;28;20318;-56
2023/08/28 01:38:00;;;;;;;4.50;1.03;;;;;;;18.83;84.57;100616.88;5006339;28;20747;-57
2023/08/28 01:40:38;;;;;;;10.73;3.13;;;;;;;18.63;86.05;100611.56;4995713;28;20375;-57
2023/08/28 01:43:13;;;;;;;6.00;1.93;;;;;;;18.52;86.16;100610.25;4995792;28;20283;-59
2023/08/28 01:45:43;;;;;;;2.40;0.90;;;;;;;18.43;87.84;100601.88;5005648;28;20316;-57
2023/08/28 01:48:14;;;;;;;1.43;0.70;;;;;;;18.52;88.39;100604.97;4995682;28;20798;-58
2023/08/28 01:50:45;;;;;;;11.57;2.80;;;;;;;18.69;89.36;100606.00;4998705;28;20277;-57
2023/08/28 01:53:15;;;;;;;12.60;2.80;;;;;;;18.69;85.98;100606.00;4978840;28;20289;-57
2023/08/28 01:56:24;;;;;;;14.90;2.63;;;;;;;18.62;85.81;100605.44;5010468;28;20310;-55
2023/08/28 01:58:58;;;;;;;16.83;3.50;;;;;;;18.67;84.88;100605.19;5003888;28;20306;-57
2023/08/28 02:01:29;;;;;;;3.07;1.03;;;;;;;18.63;84.12;100595.69;5003797;28;20780;-55
2023/08/28 02:04:00;;;;;;;11.07;2.70;;;;;;;18.74;85.42;100604.00;5012846;28;20329;-57
2023/08/28 02:06:30;;;;;;;2.77;0.90;;;;;;;18.83;85.20;100608.91;5017756;28;20290;-56
2023/08/28 02:09:01;;;;;;;3.10;1.20;;;;;;;18.89;84.65;100611.28;5004660;28;20382;-56
2023/08/28 02:11:33;;;;;;;2.53;0.90;;;;;;;19.04;85.39;100606.22;5017534;28;20280;-57
2023/08/28 02:14:06;;;;;;;3.83;0.93;;;;;;;18.92;83.20;100603.22;5012826;28;20299;-56
2023/08/28 02:16:38;;;;;;;2.50;0.80;;;;;;;18.65;85.00;100599.13;5024577;28;20359;-58
2023/08/28 02:19:08;;;;;;;2.70;1.20;;;;;;;18.54;86.17;100602.25;5014229;28;20295;-58
2023/08/28 02:21:39;;;;;;;3.77;1.13;;;;;;;18.53;87.49;100606.69;5024316;28;20637;-58
2023/08/28 02:24:10;;;;;;;2.27;0.70;;;;;;;18.54;86.07;100611.03;5008124;28;20697;-58
2023/08/28 02:26:41;;;;;;;4.70;1.00;;;;;;;18.49;85.39;100607.72;5020374;28;20279;-58
2023/08/28 02:29:14;;;;;;;1.70;0.70;;;;;;;18.68;86.77;100599.00;5010186;28;20765;-58
2023/08/28 02:31:58;;;;;;;3.83;1.57;;;;;;;18.83;86.47;100593.03;5021258;28;20386;-60
2023/08/28 02:34:35;;;;;;;4.23;0.80;;;;;;;18.95;83.49;100591.63;5010384;28;20741;-57
2023/08/28 02:37:06;;;;;;;1.13;0.60;;;;;;;18.90;82.26;100572.44;5010833;28;20280;-58
2023/08/28 02:39:38;;;;;;;2.67;0.67;;;;;;;19.05;82.86;100576.19;5020377;28;20322;-59
2023/08/28 02:42:10;;;;;;;3.70;0.80;;;;;;;19.14;82.22;100570.44;5001463;28;20324;-58
2023/08/28 02:44:43;;;;;;;9.60;2.90;;;;;;;19.14;80.69;100575.72;5006662;28;20306;-58
2023/08/28 02:47:15;;;;;;;7.03;1.70;;;;;;;19.16;81.81;100573.88;5010601;28;20722;-55
2023/08/28 02:49:49;;;;;;;2.83;1.13;;;;;;;19.23;82.54;100570.00;5024803;28;20301;-58
2023/08/28 02:52:23;;;;;;;24.63;6.60;;;;;;;19.35;83.79;100574.72;5013294;28;20402;-58
2023/08/28 02:54:56;;;;;;;4.57;1.00;;;;;;;19.40;82.11;100571.84;5022411;28;20291;-57
2023/08/28 02:57:29;;;;;;;3.37;1.00;;;;;;;19.43;80.31;100565.53;5013958;28;20289;-59
2023/08/28 03:00:02;;;;;;;11.83;2.67;;;;;;;19.36;80.13;100573.78;5013972;28;20288;-58
2023/08/28 03:02:33;;;;;;;2.80;0.67;;;;;;;19.36;80.67;100565.81;5023714;28;20282;-59
2023/08/28 03:05:08;;;;;;;2.90;0.80;;;;;;;19.67;81.70;100558.16;5013377;28;20310;-58
2023/08/28 03:07:40;;;;;;;2.10;0.80;;;;;;;20.09;79.99;100572.91;5024367;28;20295;-57
2023/08/28 03:10:14;;;;;;;2.03;0.70;;;;;;;20.25;77.23;100566.72;5014232;28;20292;-58
2023/08/28 03:12:46;;;;;;;5.73;0.80;;;;;;;20.36;74.45;100566.16;5023920;28;20311;-58
2023/08/28 03:15:20;;;;;;;1.17;0.70;;;;;;;20.52;74.76;100562.69;5013559;28;20450;-58
2023/08/28 03:17:52;;;;;;;1.50;0.57;;;;;;;20.68;72.94;100548.56;5023741;28;20291;-56
2023/08/28 03:20:24;;;;;;;1.20;0.70;;;;;;;20.82;72.41;100544.31;5001259;28;20731;-56
2023/08/28 03:22:58;;;;;;;0.70;0.60;;;;;;;20.87;72.22;100521.88;5000504;28;20280;-58
2023/08/28 03:25:33;;;;;;;1.17;1.00;;;;;;;21.07;72.21;100544.69;5015833;28;20626;-57
2023/08/28 03:28:09;;;;;;;2.33;0.60;;;;;;;21.21;72.68;100551.00;5013222;28;20768;-58
2023/08/28 03:30:43;;;;;;;2.07;0.80;;;;;;;21.51;72.14;100549.28;5023789;28;20374;-58
2023/08/28 03:33:17;;;;;;;1.67;0.70;;;;;;;21.76;70.05;100535.44;5014334;28;20289;-58
2023/08/28 03:35:50;;;;;;;1.10;0.80;;;;;;;21.82;69.50;100546.69;5023214;28;20302;-55
2023/08/28 03:38:23;;;;;;;1.23;0.70;;;;;;;21.75;66.88;100547.03;5013279;28;20049;-58
2023/08/28 03:40:56;;;;;;;1.60;0.67;;;;;;;21.79;68.06;100542.41;5007653;28;20053;-59
2023/08/28 03:43:30;;;;;;;1.60;0.73;;;;;;;21.57;67.25;100547.22;4993095;28;20033;-59
2023/08/28 03:46:04;;;;;;;1.83;0.80;;;;;;;21.30;66.37;100546.03;4994683;28;20042;-58
2023/08/28 03:48:35;;;;;;;1.10;0.63;;;;;;;21.30;67.93;100537.22;5022334;28;20395;-57
2023/08/28 03:51:07;;;;;;;1.80;0.90;;;;;;;21.54;68.25;100527.88;4994625;28;20052;-58
2023/08/28 03:53:43;;;;;;;4.17;1.10;;;;;;;21.95;68.47;100521.91;5003049;28;20041;-58
2023/08/28 03:56:15;;;;;;;2.10;0.70;;;;;;;21.94;66.85;100520.22;4991895;28;20048;-59
2023/08/28 03:58:49;;;;;;;0.93;0.60;;;;;;;21.64;65.14;100527.31;5002112;28;20093;-56
2023/08/28 04:01:26;;;;;;;2.07;0.83;;;;;;;21.60;67.37;100520.47;4996119;28;20057;-57
2023/08/28 04:03:59;;;;;;;1.43;0.80;;;;;;;21.76;66.77;100522.13;5015758;28;20107;-57
2023/08/28 04:06:32;;;;;;;1.00;0.60;;;;;;;21.62;65.55;100534.56;5023124;28;20057;-58
2023/08/28 04:09:05;;;;;;;2.33;0.77;;;;;;;21.88;68.42;100535.66;5012675;28;20057;-56
2023/08/28 04:11:39;;;;;;;1.13;0.70;;;;;;;22.11;68.07;100536.94;5023125;28;20454;-59
2023/08/28 04:14:13;;;;;;;3.07;0.67;;;;;;;22.01;66.14;100525.16;5013083;28;20463;-59
2023/08/28 04:16:51;;;;;;;3.63;0.80;;;;;;;22.08;66.92;100527.34;5023480;28;20045;-58
2023/08/28 04:19:27;;;;;;;1.40;0.70;;;;;;;22.31;66.74;100533.97;5012409;28;20060;-58
2023/08/28 04:22:00;;;;;;;1.97;0.80;;;;;;;22.23;65.16;100525.59;5012428;28;20866;-58
2023/08/28 04:24:33;;;;;;;2.93;0.97;;;;;;;22.01;66.21;100530.47;5022340;28;20106;-59
2023/08/28 04:27:07;;;;;;;1.00;0.80;;;;;;;21.82;66.87;100526.25;5012639;28;20056;-57
2023/08/28 04:29:42;;;;;;;1.97;0.80;;;;;;;21.52;67.23;100529.75;5020749;28;20053;-58
2023/08/28 04:32:17;;;;;;;3.47;1.20;;;;;;;21.19;66.41;100531.63;5012697;28;20852;-58
2023/08/28 04:34:52;;;;;;;2.40;0.80;;;;;;;20.97;67.66;100513.41;5023123;28;20326;-57
2023/08/28 04:37:25;;;;;;;4.70;1.10;;;;;;;20.87;68.30;100505.09;5011670;28;20139;-58
2023/08/28 04:39:59;;;;;;;3.37;0.80;;;;;;;21.02;67.47;100498.91;5011912;28;20053;-57
2023/08/28 04:42:32;;;;;;;2.30;1.00;;;;;;;21.01;67.67;100507.81;5019701;28;20118;-57
2023/08/28 04:45:05;;;;;;;2.53;1.00;;;;;;;20.96;68.35;100509.88;5010707;28;20071;-58
2023/08/28 04:47:39;;;;;;;2.40;0.97;;;;;;;21.09;68.02;100507.38;5021043;28;20307;-59
2023/08/28 04:50:15;;;;;;;2.13;0.77;;;;;;;21.43;66.95;100509.00;5011105;28;20152;-58
2023/08/28 04:52:49;;;;;;;1.83;0.90;;;;;;;21.60;66.33;100524.00;5023151;28;20287;-59
2023/08/28 04:55:23;;;;;;;3.00;0.70;;;;;;;21.59;66.43;100540.03;5012070;28;20283;-59
2023/08/28 04:57:56;;;;;;;1.10;0.70;;;;;;;21.66;67.42;100536.06;5022039;28;20052;-58
2023/08/28 05:00:30;;;;;;;2.60;0.93;;;;;;;21.80;67.67;100540.59;5011761;28;20436;-59
2023/08/28 05:03:05;;;;;;;2.03;0.87;;;;;;;21.92;66.42;100537.22;5012182;28;20506;-60
2023/08/28 05:05:39;;;;;;;1.97;1.10;;;;;;;21.70;64.47;100525.16;5021295;28;20049;-59
2023/08/28 05:08:17;;;;;;;3.15;0.88;;;;;;;21.45;66.94;100547.00;5011610;28;20537;-58
2023/08/28 05:10:51;;;;;;;1.00;0.80;;;;;;;21.25;66.50;100541.94;5020775;28;20071;-60
2023/08/28 05:13:24;;;;;;;3.90;1.10;;;;;;;21.13;67.23;100542.63;5011203;28;20541;-59
2023/08/28 05:15:59;;;;;;;1.23;0.80;;;;;;;21.02;66.99;100530.78;5011682;28;20287;-58
2023/08/28 05:18:34;;;;;;;2.43;0.70;;;;;;;20.93;67.71;100525.97;5021208;28;20123;-60
2023/08/28 05:21:08;;;;;;;3.80;0.80;;;;;;;20.42;68.60;100440.25;5011344;28;20130;-59
2023/08/28 05:23:41;;;;;;;2.70;0.80;;;;;;;20.97;68.87;100514.25;5021704;28;20268;-59
2023/08/28 05:26:15;;;;;;;1.83;0.97;;;;;;;21.03;69.90;100511.25;5009324;28;20283;-58
2023/08/28 05:28:48;;;;;;;1.30;0.70;;;;;;;21.13;70.05;100505.41;5021656;28;20292;-59
2023/08/28 05:31:23;;;;;;;2.00;0.80;;;;;;;20.95;68.85;100481.59;5011485;28;20279;-57
2023/08/28 05:33:58;;;;;;;1.53;0.60;;;;;;;21.24;68.87;100524.25;5021279;28;20843;-59
2023/08/28 05:36:31;;;;;;;2.57;1.40;;;;;;;21.31;68.08;100528.28;5010410;28;20353;-60
2023/08/28 05:39:04;;;;;;;3.20;1.40;;;;;;;21.26;69.70;100533.00;5009936;28;20033;-57
2023/08/28 05:41:35;;;;;;;2.03;0.70;;;;;;;21.27;69.39;100534.75;5020761;28;20500;-58
2023/08/28 05:44:11;;;;;;;0.57;0.50;;;;;;;21.06;67.41;100527.00;5010500;28;20146;-59
2023/08/28 05:46:45;;;;;;;1.83;0.90;;;;;;;21.05;67.40;100541.25;5021808;28;20384;-59
2023/08/28 05:49:20;;;;;;;4.83;1.60;;;;;;;20.98;67.94;100534.56;5014775;28;20047;-59
2023/08/28 05:51:55;;;;;;;5.77;2.10;;;;;;;21.01;68.17;100533.53;5031957;28;20276;-60
2023/08/28 05:54:28;;;;;;;5.00;1.80;;;;;;;21.18;68.25;100525.47;5020837;28;20272;-59
2023/08/28 05:57:01;;;;;;;3.07;1.50;;;;;;;21.26;68.54;100519.72;5019173;28;20572;-60
2023/08/28 05:59:34;;;;;;;7.00;1.00;;;;;;;21.19;68.08;100526.31;5039321;28;20279;-60
2023/08/28 06:02:07;;;;;;;2.37;0.67;;;;;;;21.00;69.27;100527.38;5023024;28;20304;-58
2023/08/28 06:04:41;;;;;;;1.23;0.67;;;;;;;20.96;69.32;100515.19;5020645;28;20037;-60
2023/08/28 06:07:16;;;;;;;3.27;0.53;;;;;;;20.94;69.47;100522.38;5010001;28;20319;-61
2023/08/28 06:09:49;;;;;;;1.27;0.73;;;;;;;20.86;68.80;100525.44;5020387;28;20750;-59
2023/08/28 06:12:21;;;;;;;1.83;1.00;;;;;;;20.80;68.85;100530.25;5010497;28;20310;-58
2023/08/28 06:14:55;;;;;;;5.80;1.53;;;;;;;20.67;67.73;100541.53;5021165;28;20048;-56
2023/08/28 06:17:28;;;;;;;7.33;2.63;;;;;;;20.58;67.20;100531.41;5010733;28;20279;-58
2023/08/28 06:20:09;;;;;;;4.43;2.17;;;;;;;20.57;66.80;100529.72;5010929;28;20397;-58
2023/08/28 06:22:45;;;;;;;1.10;0.55;;;;;;;20.73;68.33;100531.53;5022765;28;20407;-61
2023/08/28 06:25:17;;;;;;;3.03;0.90;;;;;;;20.84;67.67;100521.16;5014173;28;20080;-60
2023/08/28 06:27:50;;;;;;;3.00;0.70;;;;;;;20.61;67.58;100456.91;5024346;28;20662;-60
2023/08/28 06:30:25;;;;;;;1.17;0.70;;;;;;;21.01;67.44;100509.63;5002628;28;20076;-59
2023/08/28 06:33:00;;;;;;;1.67;0.80;;;;;;;21.03;66.04;100516.56;4998647;28;20287;-59
2023/08/28 06:35:37;;;;;;;1.50;1.07;;;;;;;21.05;66.36;100509.34;5017350;28;20284;-59
2023/08/28 06:38:12;;;;;;;1.77;0.67;;;;;;;21.04;66.06;100498.81;5014324;28;20298;-60
2023/08/28 06:40:49;;;;;;;1.43;0.60;;;;;;;21.01;67.05;100518.44;5025374;28;20212;-60
2023/08/28 06:43:23;;;;;;;3.40;0.60;;;;;;;20.86;64.93;100500.69;4994798;28;20734;-60
2023/08/28 06:45:57;;;;;;;6.30;0.70;;;;;;;20.66;66.65;100502.66;5020981;28;20825;-59
2023/08/28 06:48:33;;;;;;;2.50;0.70;;;;;;;20.44;67.58;100507.38;4994140;28;20590;-58
2023/08/28 06:51:15;;;;;;;0.40;0.40;;;;;;;20.08;68.15;100511.03;4994349;28;20355;-59
2023/08/28 06:53:50;;;;;;;3.70;0.67;;;;;;;19.97;69.54;100497.47;5019092;28;20823;-60
2023/08/28 06:56:23;;;;;;;2.60;0.60;;;;;;;19.86;70.29;100505.97;4994183;28;20273;-60
2023/08/28 06:58:57;;;;;;;0.80;0.60;;;;;;;19.79;71.67;100505.44;5005072;28;20283;-59
2023/08/28 07:01:32;;;;;;;2.27;0.70;;;;;;;19.71;72.40;100507.59;4994455;28;20316;-59
2023/08/28 07:04:05;;;;;;;3.87;1.20;;;;;;;19.66;73.73;100514.91;4992939;28;21109;-60
2023/08/28 07:06:40;;;;;;;2.57;0.70;;;;;;;19.68;72.42;100518.38;5017655;28;20279;-59
2023/08/28 07:09:13;;;;;;;1.77;0.60;;;;;;;19.60;72.67;100520.53;5014197;28;20798;-60
2023/08/28 07:11:46;;;;;;;2.67;1.00;;;;;;;19.28;73.50;100483.22;5023983;28;20614;-59
2023/08/28 07:14:22;;;;;;;3.00;0.70;;;;;;;19.44;73.73;100523.06;5014226;28;20288;-60
2023/08/28 07:17:05;;;;;;;4.00;0.70;;;;;;;19.35;74.54;100527.03;5014738;28;20280;-60
2023/08/28 07:19:48;;;;;;;1.37;0.70;;;;;;;19.31;75.35;100520.16;5023338;28;20283;-60
2023/08/28 07:22:36;;;;;;;5.65;0.80;;;;;;;19.29;76.10;100531.75;4993633;28;20594;-60
2023/08/28 07:25:15;;;;;;;5.30;0.97;;;;;;;19.23;76.38;100527.63;4992530;28;20063;-60
2023/08/28 07:27:57;;;;;;;1.77;0.40;;;;;;;19.17;77.11;100527.94;5018549;28;20279;-59
2023/08/28 07:30:35;;;;;;;2.40;0.50;;;;;;;19.14;78.08;100534.19;5012726;28;20288;-60
2023/08/28 07:33:10;;;;;;;1.52;0.47;;;;;;;19.11;78.63;100529.06;5012773;28;20288;-59
2023/08/28 07:35:48;;;;;;;2.73;1.10;;;;;;;18.99;79.22;100528.78;5022730;28;20076;-59
2023/08/28 07:38:27;;;;;;;9.13;0.95;;;;;;;19.01;81.17;100532.22;5013015;28;20263;-60
2023/08/28 07:41:03;;;;;;;3.47;0.60;;;;;;;18.95;82.25;100544.81;5013719;28;20052;-60
2023/08/28 07:43:42;;;;;;;1.90;0.60;;;;;;;18.78;82.89;100531.50;5021393;28;20296;-60
2023/08/28 07:46:19;;;;;;;3.67;0.90;;;;;;;18.28;84.18;100463.19;5012871;28;20310;-60
2023/08/28 07:48:57;;;;;;;5.03;0.63;;;;;;;18.78;85.17;100568.56;5020449;28;20291;-60
2023/08/28 07:51:33;;;;;;;3.90;0.70;;;;;;;18.69;85.83;100574.22;5022521;28;20294;-58
2023/08/28 07:54:15;;;;;;;;;;;;;;;18.59;85.81;100588.81;5012245;28;20280;-61
2023/08/28 07:56:52;;;;;;;1.02;0.60;;;;;;;18.46;85.41;100586.69;5022683;28;19935;-59
2023/08/28 07:59:26;;;;;;;1.93;0.60;;;;;;;18.38;84.93;100586.19;5009124;28;20469;-59
2023/08/28 08:02:04;;;;;;;3.37;0.80;;;;;;;18.23;85.80;100594.78;4994063;28;20386;-60
2023/08/28 08:04:50;;;;;;;2.50;0.60;;;;;;;18.14;86.46;100587.25;5022839;28;20742;-60
2023/08/28 08:07:35;;;;;;;3.90;0.60;;;;;;;18.09;86.25;100590.91;4992540;28;20291;-59
2023/08/28 08:10:20;;;;;;;1.03;0.50;;;;;;;18.00;86.13;100591.34;4992513;28;20390;-59
2023/08/28 08:12:58;;;;;;;2.43;0.43;;;;;;;17.82;86.63;100586.78;5002904;28;20375;-60
2023/08/28 08:15:33;;;;;;;4.63;0.60;;;;;;;17.79;87.51;100608.03;5011846;28;20294;-59
2023/08/28 08:18:14;;;;;;;3.20;0.70;;;;;;;17.67;88.52;100606.75;5011179;28;21516;-59
2023/08/28 08:20:56;;;;;;;2.00;0.50;;;;;;;17.66;89.36;100608.53;5022472;28;20337;-60
2023/08/28 08:23:33;;;;;;;0.90;0.60;;;;;;;17.68;89.89;100604.06;4992190;28;20276;-59
2023/08/28 08:26:13;;;;;;;5.67;0.60;;;;;;;17.68;90.43;100606.69;4991693;28;20940;-59
2023/08/28 08:28:55;;;;;;;4.67;0.77;;;;;;;17.20;91.11;100546.97;5009989;28;20751;-59
2023/08/28 08:31:39;;;;;;;4.20;0.80;;;;;;;17.43;91.53;100616.53;5012284;28;20386;-58
2023/08/28 08:34:18;;;;;;;2.00;0.73;;;;;;;17.27;93.00;100612.75;5010338;28;20295;-58
2023/08/28 08:36:49;;;;;;;3.10;0.57;;;;;;;17.21;93.69;100612.06;5021756;28;20303;-59
2023/08/28 08:39:21;;;;;;;3.10;0.70;;;;;;;17.15;94.35;100617.59;5011976;28;20268;-58
2023/08/28 08:41:54;;;;;;;3.43;0.53;;;;;;;17.11;94.96;100620.41;5022397;28;20299;-59
2023/08/28 08:44:25;;;;;;;2.37;0.77;;;;;;;17.00;95.44;100628.72;5007674;28;20305;-58
2023/08/28 08:46:57;;;;;;;1.33;0.60;;;;;;;16.88;96.05;100629.19;5018408;28;20387;-59
2023/08/28 08:49:32;;;;;;;5.63;0.80;;;;;;;16.78;96.61;100640.06;5022073;28;20366;-58
2023/08/28 08:52:06;;;;;;;6.63;0.83;;;;;;;16.74;97.08;100641.03;5011639;28;20319;-58
2023/08/28 08:54:42;;;;;;;5.80;1.47;;;;;;;16.73;96.95;100638.47;5021571;28;20282;-59
2023/08/28 08:57:24;;;;;;;9.80;2.33;;;;;;;16.73;97.24;100644.59;5011793;28;20390;-58
2023/08/28 08:59:55;;;;;;;4.00;2.23;;;;;;;16.65;96.33;100638.75;5021797;28;20263;-58
2023/08/28 09:02:31;;;;;;;2.80;0.90;;;;;;;16.45;96.27;100635.94;5011153;28;20740;-59
2023/08/28 09:05:11;;;;;;;1.57;0.40;;;;;;;16.32;96.65;100631.06;5011537;28;20717;-58
2023/08/28 09:08:01;;;;;;;2.33;0.50;;;;;;;16.27;97.28;100647.97;5017001;28;20870;-58
2023/08/28 09:10:35;;;;;;;5.28;0.40;;;;;;;16.17;98.02;100642.16;5021737;28;20591;-59
2023/08/28 09:16:26;;;;;;;1.63;0.60;;;;;;;16.01;98.85;100657.63;4991447;28;20362;-58
2023/08/28 09:19:03;;;;;;;1.57;0.60;;;;;;;15.74;99.21;100622.47;4988937;28;20570;-58
2023/08/28 09:21:46;;;;;;;1.77;0.77;;;;;;;15.98;99.68;100664.78;4999609;28;20311;-59
2023/08/28 09:24:25;;;;;;;2.10;0.67;;;;;;;15.90;100.00;100654.44;4989539;28;20057;-58
2023/08/28 09:26:57;;;;;;;2.83;0.90;;;;;;;15.95;100.00;100663.09;5003990;28;20297;-60
2023/08/28 09:29:31;;;;;;;2.57;0.80;;;;;;;15.92;100.00;100666.66;5021501;28;20314;-57
2023/08/28 09:32:04;;;;;;;1.20;0.70;;;;;;;15.87;100.00;100671.22;5011906;28;20287;-57
2023/08/28 09:34:40;;;;;;;3.30;0.60;;;;;;;15.73;100.00;100668.19;5021031;28;20851;-57
2023/08/28 09:37:12;;;;;;;5.67;1.03;;;;;;;15.52;100.00;100673.19;5001004;28;20726;-58
2023/08/28 09:39:55;;;;;;;0.80;0.60;;;;;;;15.21;100.00;100639.00;5000438;28;20280;-59
2023/08/28 09:42:28;;;;;;;0.73;0.50;;;;;;;15.44;100.00;100676.94;4990965;28;20292;-59
2023/08/28 09:45:05;;;;;;;1.10;0.77;;;;;;;15.52;100.00;100675.81;5008099;28;20296;-58
2023/08/28 09:47:37;;;;;;;2.27;0.73;;;;;;;15.54;100.00;100673.97;5021258;28;20361;-59
2023/08/28 09:50:10;;;;;;;4.20;0.80;;;;;;;15.69;100.00;100677.06;5011207;28;20302;-59
2023/08/28 09:52:44;;;;;;;1.63;0.90;;;;;;;15.79;100.00;100698.75;5021740;28;20614;-59
2023/08/28 09:55:20;;;;;;;3.50;1.30;;;;;;;15.79;100.00;100683.78;5010418;28;20292;-59
2023/08/28 09:58:04;;;;;;;4.00;1.30;;;;;;;15.81;100.00;100684.59;5022484;28;20306;-58
2023/08/28 10:00:52;;;;;;;3.20;0.90;;;;;;;15.84;100.00;100697.69;5020737;28;20292;-59
2023/08/28 10:03:25;;;;;;;5.73;1.43;;;;;;;15.59;100.00;100658.03;5003154;28;20816;-59
2023/08/28 10:05:59;;;;;;;2.60;1.10;;;;;;;15.76;100.00;100699.69;5002413;28;20284;-59
2023/08/28 10:08:33;;;;;;;7.23;1.50;;;;;;;15.64;100.00;100689.50;5005071;28;20291;-58
2023/08/28 10:11:06;;;;;;;8.80;3.60;;;;;;;15.65;100.00;100707.03;4995750;28;20382;-57
2023/08/28 10:13:38;;;;;;;9.37;4.63;;;;;;;15.57;100.00;100703.75;5005882;28;20310;-59
2023/08/28 10:16:16;;;;;;;7.70;3.17;;;;;;;15.45;100.00;100695.34;4995026;28;20342;-58
2023/08/28 10:18:56;;;;;;;3.50;2.17;;;;;;;15.37;100.00;100701.72;5004906;28;20284;-56
2023/08/28 10:21:33;;;;;;;2.90;0.90;;;;;;;15.19;100.00;100692.59;4995286;28;20280;-57
2023/08/28 10:24:06;;;;;;;6.20;0.90;;;;;;;15.18;100.00;100706.66;5012824;28;20381;-60
2023/08/28 10:26:38;;;;;;;3.50;0.80;;;;;;;15.08;100.00;100701.66;5024075;28;21197;-59
2023/08/28 10:29:11;;;;;;;8.23;1.00;;;;;;;15.04;100.00;100694.75;5014863;28;20284;-57
2023/08/28 10:31:45;;;;;;;5.67;1.10;;;;;;;14.97;100.00;100687.91;5025205;28;20385;-57
2023/08/28 10:34:19;;;;;;;2.50;1.20;;;;;;;15.12;100.00;100718.22;5014986;28;21469;-57
2023/08/28 10:36:53;;;;;;;4.80;1.20;;;;;;;15.01;100.00;100710.63;5024389;28;20429;-57
2023/08/28 10:39:27;;;;;;;7.70;2.50;;;;;;;15.03;100.00;100719.34;5013522;28;20282;-58
2023/08/28 10:41:59;;;;;;;3.50;1.93;;;;;;;14.93;100.00;100717.88;5014050;28;20833;-58
2023/08/28 10:44:31;;;;;;;3.40;1.40;;;;;;;14.88;100.00;100717.13;5024036;28;20657;-59
2023/08/28 10:47:05;;;;;;;4.37;1.20;;;;;;;14.65;100.00;100692.31;5014100;28;20292;-59
2023/08/28 10:49:36;;;;;;;2.07;1.17;;;;;;;14.86;100.00;100722.41;5024181;28;20294;-59
2023/08/28 10:52:08;;;;;;;3.27;1.33;;;;;;;14.80;100.00;100713.81;5013527;28;20802;-59
2023/08/28 10:54:42;;;;;;;4.37;1.37;;;;;;;14.80;100.00;100727.88;5024143;28;20719;-58
2023/08/28 10:57:24;;;;;;;5.03;2.00;;;;;;;14.66;100.00;100714.19;5013608;28;20290;-57
2023/08/28 10:59:56;;;;;;;1.73;1.00;;;;;;;14.75;100.00;100735.00;5023682;28;20276;-57
2023/08/28 11:03:10;;;;;;;3.67;1.33;;;;;;;14.73;100.00;100728.91;5013806;28;20275;-58
2023/08/28 11:05:42;;;;;;;2.67;1.17;;;;;;;14.75;100.00;100723.59;5022892;28;20797;-58
2023/08/28 11:08:16;;;;;;;4.50;1.37;;;;;;;14.76;100.00;100741.13;5013452;28;20795;-58
2023/08/28 11:11:16;;;;;;;3.00;1.30;;;;;;;14.79;100.00;100736.63;5024234;28;20307;-58
2023/08/28 11:14:04;;;;;;;3.17;1.80;;;;;;;14.86;100.00;100742.63;5023850;28;20532;-59
2023/08/28 11:16:41;;;;;;;5.37;1.70;;;;;;;14.85;100.00;100740.88;5013763;28;20279;-57
2023/08/28 11:19:14;;;;;;;3.57;1.77;;;;;;;14.84;100.00;100733.91;4995748;28;20353;-58
2023/08/28 11:21:48;;;;;;;6.63;1.30;;;;;;;14.79;100.00;100722.63;5003902;28;20284;-58
2023/08/28 11:24:25;;;;;;;7.50;1.70;;;;;;;14.80;100.00;100721.72;4993391;28;20706;-59
2023/08/28 11:26:57;;;;;;;6.67;1.53;;;;;;;14.80;100.00;100732.22;5017732;28;20284;-57
2023/08/28 11:29:30;;;;;;;1.20;1.10;;;;;;;14.77;100.00;100727.06;5024201;28;20275;-59
2023/08/28 11:32:04;;;;;;;5.37;1.40;;;;;;;14.52;100.00;100685.59;5014262;28;20827;-58
2023/08/28 11:34:38;;;;;;;6.90;1.73;;;;;;;14.83;100.00;100737.44;5024202;28;20349;-59
2023/08/28 11:37:10;;;;;;;2.47;1.43;;;;;;;14.88;100.00;100736.41;5013771;28;20288;-58
2023/08/28 11:39:42;;;;;;;3.60;1.30;;;;;;;14.92;100.00;100746.84;5023253;28;20280;-58
2023/08/28 11:42:15;;;;;;;3.10;1.50;;;;;;;14.87;100.00;100749.59;5013882;28;20303;-58
2023/08/28 11:44:46;;;;;;;5.87;1.77;;;;;;;14.79;100.00;100746.31;5023452;28;20298;-59
2023/08/28 11:47:24;;;;;;;3.80;2.10;;;;;;;14.76;100.00;100741.13;5002685;28;20656;-59
2023/08/28 11:49:59;;;;;;;3.33;2.00;;;;;;;14.72;100.00;100739.47;5004328;28;20714;-59
2023/08/28 11:52:30;;;;;;;5.33;1.77;;;;;;;14.67;100.00;100736.94;5012933;28;20288;-58
2023/08/28 11:55:04;;;;;;;3.43;2.03;;;;;;;14.65;100.00;100737.00;5013163;28;20275;-58
2023/08/28 11:57:36;;;;;;;6.30;3.53;;;;;;;14.63;100.00;100741.44;5009400;28;20723;-58
2023/08/28 12:00:11;;;;;;;6.47;3.10;;;;;;;14.63;100.00;100753.75;4993591;28;20367;-58
2023/08/28 12:02:47;;;;;;;11.87;5.70;;;;;;;14.59;100.00;100749.44;5016567;28;21273;-58